createdAt,value
2023-02-27T00:12:25.966Z,644.00
2023-02-27T00:13:26.053Z,641.00
2023-02-27T00:14:26.109Z,647.00
2023-02-27T00:15:26.154Z,636.00
2023-02-27T00:16:26.274Z,642.00
2023-02-27T00:17:26.348Z,642.00
2023-02-27T00:18:26.316Z,645.00
2023-02-27T00:19:26.388Z,654.00
2023-02-27T00:20:26.462Z,636.00
2023-02-27T00:21:26.894Z,645.00
2023-02-27T00:22:26.578Z,643.00
2023-02-27T00:23:26.635Z,635.00
2023-02-27T00:24:26.715Z,637.00
2023-02-27T00:25:26.758Z,639.00
2023-02-27T00:26:26.825Z,641.00
2023-02-27T00:27:26.878Z,639.00
2023-02-27T00:28:26.925Z,635.00
2023-02-27T00:29:26.979Z,645.00
2023-02-27T00:30:27.075Z,638.00
2023-02-27T00:31:27.436Z,639.00
2023-02-27T00:32:27.202Z,642.00
2023-02-27T00:33:27.213Z,648.00
2023-02-27T00:34:27.280Z,632.00
2023-02-27T00:35:28.324Z,635.00
2023-02-27T00:36:27.455Z,630.00
2023-02-27T00:37:27.459Z,630.00
2023-02-27T00:38:27.572Z,635.00
2023-02-27T00:39:27.623Z,627.00
2023-02-27T00:40:27.625Z,642.00
2023-02-27T00:56:28.579Z,620.00
2023-02-27T00:57:28.690Z,635.00
2023-02-27T00:58:28.707Z,640.00
2023-02-27T00:59:28.770Z,642.00
2023-02-27T01:00:28.871Z,638.00
2023-02-27T01:01:29.043Z,637.00
2023-02-27T01:02:28.976Z,636.00
2023-02-27T01:03:28.996Z,638.00
2023-02-27T01:04:29.049Z,641.00
2023-02-27T01:05:29.109Z,640.00
2023-02-27T01:06:29.182Z,641.00
2023-02-27T01:07:29.235Z,637.00
2023-02-27T01:08:29.284Z,642.00
2023-02-27T01:09:29.343Z,640.00
2023-02-27T01:10:29.399Z,642.00
2023-02-27T01:11:29.461Z,645.00
2023-02-27T01:12:29.531Z,630.00
2023-02-27T01:13:29.576Z,636.00
2023-02-27T01:14:29.642Z,640.00
2023-02-27T01:15:29.711Z,645.00
2023-02-27T01:16:29.865Z,635.00
2023-02-27T01:17:29.838Z,635.00
2023-02-27T01:18:29.889Z,630.00
2023-02-27T01:19:30.035Z,631.00
2023-02-27T01:20:30.027Z,649.00
2023-02-27T01:21:30.056Z,636.00
2023-02-27T01:22:30.111Z,638.00
2023-02-27T01:23:30.221Z,635.00
2023-02-27T01:24:30.214Z,639.00
2023-02-27T01:25:30.286Z,639.00
2023-02-27T01:26:31.350Z,637.00
2023-02-27T01:27:30.408Z,644.00
2023-02-27T01:28:30.477Z,638.00
2023-02-27T01:29:30.535Z,634.00
2023-02-27T01:30:31.447Z,635.00
2023-02-27T01:31:30.762Z,647.00
2023-02-27T01:32:30.805Z,638.00
2023-02-27T01:33:30.783Z,639.00
2023-02-27T01:34:32.789Z,634.00
2023-02-27T01:35:30.953Z,644.00
2023-02-27T01:36:30.831Z,642.00
2023-02-27T01:37:30.823Z,639.00
2023-02-27T01:38:30.876Z,646.00
2023-02-27T01:39:30.806Z,641.00
2023-02-27T01:40:30.803Z,645.00
2023-02-27T01:41:30.884Z,634.00
2023-02-27T01:42:30.856Z,644.00
2023-02-27T01:43:30.860Z,627.00
2023-02-27T01:44:30.776Z,639.00
2023-02-27T01:45:30.832Z,645.00
2023-02-27T01:46:30.759Z,646.00
2023-02-27T01:47:30.782Z,635.00
2023-02-27T01:48:30.754Z,642.00
2023-02-27T01:49:30.741Z,637.00
2023-02-27T01:50:30.726Z,644.00
2023-02-27T01:51:31.353Z,639.00
2023-02-27T01:52:30.717Z,638.00
2023-02-27T01:53:30.711Z,648.00
2023-02-27T01:54:30.706Z,647.00
2023-02-27T01:55:30.692Z,636.00
2023-02-27T01:56:30.682Z,648.00
2023-02-27T01:57:30.699Z,639.00
2023-02-27T01:58:30.674Z,647.00
2023-02-27T01:59:30.674Z,645.00
2023-02-27T02:00:30.677Z,640.00
2023-02-27T02:01:30.688Z,633.00
2023-02-27T02:02:30.693Z,638.00
2023-02-27T02:03:30.650Z,639.00
2023-02-27T02:04:30.644Z,631.00
2023-02-27T02:05:30.698Z,637.00
2023-02-27T02:06:31.363Z,641.00
2023-02-27T02:07:30.625Z,644.00
2023-02-27T02:08:30.633Z,647.00
2023-02-27T02:09:30.710Z,640.00
2023-02-27T02:10:30.761Z,643.00
2023-02-27T02:11:30.824Z,635.00
2023-02-27T02:12:30.884Z,642.00
2023-02-27T02:13:30.950Z,636.00
2023-02-27T02:14:30.973Z,643.00
2023-02-27T02:15:31.040Z,655.00
2023-02-27T02:16:31.194Z,652.00
2023-02-27T02:17:31.148Z,642.00
2023-02-27T02:18:31.191Z,647.00
2023-02-27T02:19:31.249Z,654.00
2023-02-27T04:11:35.940Z,691.00
2023-02-27T04:12:35.962Z,707.00
2023-02-27T04:13:35.984Z,690.00
2023-02-27T04:14:36.012Z,688.00
2023-02-27T04:15:36.046Z,687.00
2023-02-27T04:16:36.091Z,697.00
2023-02-27T04:17:36.103Z,695.00
2023-02-27T04:18:36.123Z,696.00
2023-02-27T04:19:36.160Z,700.00
2023-02-27T04:20:36.187Z,676.00
2023-02-27T04:21:36.407Z,692.00
2023-02-27T04:22:36.259Z,689.00
2023-02-27T04:23:36.263Z,685.00
2023-02-27T04:24:36.312Z,687.00
2023-02-27T04:25:36.322Z,664.00
2023-02-27T04:26:36.343Z,669.00
2023-02-27T04:27:36.426Z,694.00
2023-02-27T04:28:36.401Z,677.00
2023-02-27T04:29:36.433Z,685.00
2023-02-27T04:30:36.470Z,678.00
2023-02-27T04:31:37.028Z,679.00
2023-02-27T04:32:36.602Z,702.00
2023-02-27T04:33:36.540Z,692.00
2023-02-27T04:34:36.564Z,687.00
2023-02-27T04:35:37.416Z,680.00
2023-02-27T04:36:36.617Z,680.00
2023-02-27T04:37:36.641Z,690.00
2023-02-27T04:38:36.667Z,693.00
2023-02-27T04:39:36.686Z,686.00
2023-02-27T04:40:36.709Z,693.00
2023-02-27T04:41:36.746Z,695.00
2023-02-27T04:42:36.765Z,694.00
2023-02-27T04:43:36.796Z,663.00
2023-02-27T04:44:36.829Z,673.00
2023-02-27T04:45:36.867Z,694.00
2023-02-27T04:46:37.001Z,684.00
2023-02-27T04:47:36.904Z,675.00
2023-02-27T04:48:36.931Z,690.00
2023-02-27T04:49:36.957Z,682.00
2023-02-27T04:50:36.990Z,684.00
2023-02-27T04:51:37.031Z,657.00
2023-02-27T04:52:37.053Z,668.00
2023-02-27T04:53:37.087Z,669.00
2023-02-27T04:54:37.109Z,666.00
2023-02-27T04:55:37.147Z,676.00
2023-02-27T04:57:37.215Z,664.00
2023-02-27T04:58:37.242Z,681.00
2023-02-27T04:59:37.284Z,655.00
2023-02-27T05:00:37.314Z,660.00
2023-02-27T05:02:37.471Z,655.00
2023-02-27T05:03:37.391Z,670.00
2023-02-27T05:04:37.447Z,663.00
2023-02-27T05:41:38.621Z,652.00
2023-02-27T05:42:38.622Z,651.00
2023-02-27T05:43:38.601Z,647.00
2023-02-27T05:44:38.605Z,652.00
2023-02-27T05:45:38.713Z,648.00
2023-02-27T05:46:38.585Z,647.00
2023-02-27T05:47:38.583Z,653.00
2023-02-27T05:48:38.572Z,653.00
2023-02-27T05:49:38.569Z,643.00
2023-02-27T05:50:38.668Z,647.00
2023-02-27T05:51:38.554Z,652.00
2023-02-27T05:52:38.549Z,653.00
2023-02-27T05:53:38.535Z,646.00
2023-02-27T05:54:38.534Z,659.00
2023-02-27T05:55:38.524Z,655.00
2023-02-27T05:56:38.520Z,652.00
2023-02-27T05:57:38.519Z,654.00
2023-02-27T05:58:38.514Z,649.00
2023-02-27T05:59:38.559Z,657.00
2023-02-27T06:00:38.482Z,657.00
2023-02-27T06:01:38.479Z,666.00
2023-02-27T06:02:38.484Z,664.00
2023-02-27T06:03:38.527Z,659.00
2023-02-27T06:04:38.462Z,663.00
2023-02-27T06:05:38.468Z,669.00
2023-02-27T06:06:38.455Z,665.00
2023-02-27T06:07:38.447Z,663.00
2023-02-27T06:08:38.434Z,673.00
2023-02-27T06:09:38.441Z,663.00
2023-02-27T06:10:38.446Z,662.00
2023-02-27T06:11:38.426Z,676.00
2023-02-27T06:12:38.421Z,693.00
2023-02-27T06:13:40.811Z,671.00
2023-02-27T06:14:38.398Z,678.00
2023-02-27T06:15:38.394Z,687.00
2023-02-27T06:16:38.467Z,689.00
2023-02-27T06:17:38.389Z,669.00
2023-02-27T06:18:38.385Z,668.00
2023-02-27T06:19:38.376Z,688.00
2023-02-27T06:20:38.424Z,701.00
2023-02-27T06:21:38.393Z,703.00
2023-02-27T06:22:38.346Z,699.00
2023-02-27T06:23:38.950Z,722.00
2023-02-27T06:24:38.335Z,729.00
2023-02-27T06:25:38.323Z,719.00
2023-02-27T06:26:38.320Z,721.00
2023-02-27T06:27:38.349Z,720.00
2023-02-27T06:28:38.363Z,734.00
2023-02-27T06:30:38.945Z,773.00
2023-02-27T07:41:40.576Z,1802.00
2023-02-27T07:42:40.707Z,1808.00
2023-02-27T07:43:40.698Z,1783.00
2023-02-27T07:44:40.751Z,1783.00
2023-02-27T07:45:40.805Z,1791.00
2023-02-27T07:46:40.961Z,1810.00
2023-02-27T09:27:46.053Z,1057.00
2023-02-27T10:19:46.043Z,2297.00
2023-02-27T10:28:46.049Z,2240.00
2023-02-27T10:35:46.562Z,2246.00
2023-02-27T10:43:46.556Z,2310.00
2023-02-27T10:44:46.703Z,2339.00
2023-02-27T10:58:45.944Z,2440.00
2023-02-27T10:59:45.961Z,2474.00
2023-02-27T11:00:45.979Z,2471.00
2023-02-27T11:01:46.085Z,2492.00
2023-02-27T11:02:45.998Z,2484.00
2023-02-27T11:03:46.021Z,2469.00
2023-02-27T11:04:46.109Z,2489.00
2023-02-27T11:05:46.047Z,2500.00
2023-02-27T11:06:46.062Z,2498.00
2023-02-27T11:07:46.084Z,2501.00
2023-02-27T11:08:46.089Z,2511.00
2023-02-27T11:09:46.108Z,2511.00
2023-02-27T11:10:46.124Z,2461.00
2023-02-27T11:11:46.135Z,2486.00
2023-02-27T11:12:46.180Z,2498.00
2023-02-27T11:13:46.249Z,2514.00
2023-02-27T11:14:46.245Z,2505.00
2023-02-27T11:15:46.282Z,2465.00
2023-02-27T11:16:46.302Z,2468.00
2023-02-27T11:17:46.299Z,2446.00
2023-02-27T11:18:46.324Z,2431.00
2023-02-27T11:19:46.356Z,2431.00
2023-02-27T11:38:47.150Z,2271.00
2023-02-27T11:39:47.188Z,2258.00
2023-02-27T11:40:47.206Z,2276.00
2023-02-27T11:41:47.229Z,2244.00
2023-02-27T11:42:47.245Z,2243.00
2023-02-27T11:43:47.245Z,2239.00
2023-02-27T11:44:49.966Z,2246.00
2023-02-27T11:46:05.218Z,2247.00
2023-02-27T11:47:47.225Z,2243.00
2023-02-27T11:48:47.206Z,2228.00
2023-02-27T11:49:47.215Z,2230.00
2023-02-27T11:50:47.225Z,2202.00
2023-02-27T11:51:47.206Z,2176.00
2023-02-27T11:52:47.201Z,2168.00
2023-02-27T11:53:47.218Z,2157.00
2023-02-27T11:54:47.219Z,2145.00
2023-02-27T11:55:47.228Z,2142.00
2023-02-27T11:56:47.266Z,2151.00
2023-02-27T11:57:47.249Z,2156.00
2023-02-27T11:58:47.272Z,2130.00
2023-02-27T11:59:47.296Z,2117.00
2023-02-27T12:00:47.301Z,2124.00
2023-02-27T12:01:47.327Z,2112.00
2023-02-27T12:02:47.487Z,2114.00
2023-02-27T12:03:47.434Z,2109.00
2023-02-27T12:04:47.389Z,2101.00
2023-02-27T12:05:47.418Z,2104.00
2023-02-27T12:06:47.418Z,2080.00
2023-02-27T12:07:47.443Z,2083.00
2023-02-27T12:08:47.477Z,2083.00
2023-02-27T12:09:47.484Z,2083.00
2023-02-27T12:10:47.498Z,2072.00
2023-02-27T12:11:47.531Z,2074.00
2023-02-27T12:12:47.531Z,2050.00
2023-02-27T12:13:47.574Z,2053.00
2023-02-27T12:14:47.602Z,2049.00
2023-02-27T12:15:47.660Z,2042.00
2023-02-27T12:16:48.321Z,2030.00
2023-02-27T12:17:47.637Z,2024.00
2023-02-27T12:18:47.736Z,2031.00
2023-02-27T12:19:47.682Z,2008.00
2023-02-27T12:20:47.691Z,2014.00
2023-02-27T12:21:49.487Z,2019.00
2023-02-27T12:22:47.735Z,2003.00
2023-02-27T12:23:47.750Z,1998.00
2023-02-27T12:24:47.763Z,2001.00
2023-02-27T12:25:47.789Z,2002.00
2023-02-27T12:26:47.812Z,1987.00
2023-02-27T12:27:47.830Z,1986.00
2023-02-27T12:28:47.879Z,1971.00
2023-02-27T12:29:47.910Z,1924.00
2023-02-27T12:30:47.930Z,1842.00
2023-02-27T12:31:48.013Z,1808.00
2023-02-27T12:32:50.136Z,1757.00
2023-02-27T12:33:48.026Z,1728.00
2023-02-27T12:34:48.056Z,1633.00
2023-02-27T12:35:48.102Z,1598.00
2023-02-27T12:36:48.136Z,1610.00
2023-02-27T12:37:48.172Z,1616.00
2023-02-27T12:38:48.212Z,1589.00
2023-02-27T12:39:48.243Z,1573.00
2023-02-27T12:40:48.271Z,1570.00
2023-02-27T12:41:48.317Z,1559.00
2023-02-27T12:42:48.350Z,1556.00
2023-02-27T12:43:48.385Z,1574.00
2023-02-27T12:44:48.424Z,1568.00
2023-02-27T12:45:48.465Z,1562.00
2023-02-27T12:46:48.473Z,1552.00
2023-02-27T12:47:49.093Z,1543.00
2023-02-27T12:48:48.533Z,1554.00
2023-02-27T12:49:48.569Z,1558.00
2023-02-27T12:50:48.598Z,1566.00
2023-02-27T12:51:49.107Z,1549.00
2023-02-27T12:52:48.657Z,1538.00
2023-02-27T12:53:48.767Z,1539.00
2023-02-27T12:54:48.711Z,1542.00
2023-02-27T12:55:48.740Z,1542.00
2023-02-27T12:56:48.805Z,1552.00
2023-02-27T12:57:48.802Z,1540.00
2023-02-27T12:58:48.830Z,1531.00
2023-02-27T12:59:48.873Z,1532.00
2023-02-27T13:00:48.933Z,1530.00
2023-02-27T13:01:48.906Z,1537.00
2023-02-27T13:02:48.938Z,1530.00
2023-02-27T13:03:49.110Z,1522.00
2023-02-27T13:04:49.049Z,1525.00
2023-02-27T13:05:49.033Z,1517.00
2023-02-27T13:06:49.072Z,1519.00
2023-02-27T13:07:49.108Z,1517.00
2023-02-27T13:08:49.167Z,1519.00
2023-02-27T13:09:49.184Z,1510.00
2023-02-27T13:10:49.253Z,1510.00
2023-02-27T13:11:49.296Z,1507.00
2023-02-27T13:12:49.315Z,1515.00
2023-02-27T13:13:49.344Z,1514.00
2023-02-27T13:14:49.387Z,1495.00
2023-02-27T13:15:49.398Z,1487.00
2023-02-27T13:16:49.577Z,1473.00
2023-02-27T13:17:49.475Z,1459.00
2023-02-27T13:18:49.500Z,1456.00
2023-02-27T13:19:49.560Z,1469.00
2023-02-27T13:20:49.565Z,1458.00
2023-02-27T13:21:49.623Z,1461.00
2023-02-27T13:22:49.646Z,1445.00
2023-02-27T13:23:49.680Z,1441.00
2023-02-27T13:24:50.123Z,1450.00
2023-02-27T13:25:49.769Z,1443.00
2023-02-27T13:26:49.785Z,1438.00
2023-02-27T13:27:49.832Z,1426.00
2023-02-27T13:28:49.867Z,1411.00
2023-02-27T13:29:49.917Z,1410.00
2023-02-27T13:30:50.125Z,1404.00
2023-02-27T13:31:50.192Z,1405.00
2023-02-27T13:32:50.115Z,1401.00
2023-02-27T13:33:50.078Z,1400.00
2023-02-27T13:34:50.118Z,1404.00
2023-02-27T13:35:50.207Z,1404.00
2023-02-27T13:36:50.176Z,1394.00
2023-02-27T13:37:50.299Z,1392.00
2023-02-27T13:38:50.259Z,1400.00
2023-02-27T13:39:50.305Z,1401.00
2023-02-27T13:40:50.337Z,1383.00
2023-02-27T13:41:50.377Z,1389.00
2023-02-27T13:42:50.411Z,1389.00
2023-02-27T13:43:52.784Z,1389.00
2023-02-27T13:44:50.442Z,1385.00
2023-02-27T13:45:50.535Z,1377.00
2023-02-27T13:46:50.457Z,1366.00
2023-02-27T13:47:50.422Z,1359.00
2023-02-27T13:48:50.424Z,1361.00
2023-02-27T13:49:50.419Z,1343.00
2023-02-27T13:50:50.429Z,1342.00
2023-02-27T13:51:50.408Z,1349.00
2023-02-27T13:52:50.383Z,1356.00
2023-02-27T13:53:50.374Z,1342.00
2023-02-27T13:54:51.941Z,1323.00
2023-02-27T13:55:50.368Z,1324.00
2023-02-27T13:56:50.598Z,1324.00
2023-02-27T13:57:50.354Z,1324.00
2023-02-27T13:58:50.394Z,1335.00
2023-02-27T13:59:50.356Z,1331.00
2023-02-27T14:00:50.336Z,1322.00
2023-02-27T14:01:50.319Z,1321.00
2023-02-27T14:02:59.493Z,1317.00
2023-02-27T14:03:51.311Z,1318.00
2023-02-27T14:04:50.317Z,1318.00
2023-02-27T14:05:50.310Z,1313.00
2023-02-27T14:06:50.302Z,1301.00
2023-02-27T14:07:50.280Z,1289.00
2023-02-27T14:08:50.284Z,1282.00
2023-02-27T14:09:50.315Z,1299.00
2023-02-27T14:10:50.272Z,1291.00
2023-02-27T14:11:50.255Z,1292.00
2023-02-27T14:12:50.253Z,1286.00
2023-02-27T14:13:50.272Z,1284.00
2023-02-27T14:14:50.669Z,1286.00
2023-02-27T14:15:50.327Z,1291.00
2023-02-27T14:16:50.227Z,1295.00
2023-02-27T14:17:52.492Z,1296.00
2023-02-27T14:18:51.254Z,1297.00
2023-02-27T14:19:50.215Z,1297.00
2023-02-27T14:20:50.200Z,1286.00
2023-02-27T14:21:50.191Z,1296.00
2023-02-27T14:22:50.241Z,1286.00
2023-02-27T14:23:50.176Z,1284.00
2023-02-27T14:25:02.085Z,1288.00
2023-02-27T14:25:51.187Z,1289.00
2023-02-27T14:26:50.270Z,1290.00
2023-02-27T14:27:50.144Z,1285.00
2023-02-27T14:28:50.223Z,1286.00
2023-02-27T14:29:50.134Z,1278.00
2023-02-27T14:30:50.176Z,1270.00
2023-02-27T14:31:50.161Z,1271.00
2023-02-27T14:32:50.119Z,1270.00
2023-02-27T14:33:50.121Z,1254.00
2023-02-27T14:34:50.130Z,1260.00
2023-02-27T14:35:50.204Z,1257.00
2023-02-27T14:36:51.137Z,1251.00
2023-02-27T14:37:50.294Z,1244.00
2023-02-27T14:38:50.348Z,1247.00
2023-02-27T14:39:50.393Z,1239.00
2023-02-27T14:40:50.508Z,1227.00
2023-02-27T14:41:50.645Z,1228.00
2023-02-27T14:42:50.542Z,1241.00
2023-02-27T14:43:51.140Z,1247.00
2023-02-27T14:44:50.659Z,1228.00
2023-02-27T14:45:50.715Z,1232.00
2023-02-27T14:46:50.758Z,1222.00
2023-02-27T14:47:50.832Z,1238.00
2023-02-27T14:48:50.950Z,1216.00
2023-02-27T14:49:50.906Z,1219.00
2023-02-27T14:50:53.218Z,1218.00
2023-02-27T14:51:51.194Z,1213.00
2023-02-27T14:52:51.203Z,1224.00
2023-02-27T14:53:51.557Z,1215.00
2023-02-27T14:54:51.298Z,1206.00
2023-02-27T14:55:51.423Z,1220.00
2023-02-27T14:56:51.384Z,1225.00
2023-02-27T14:57:51.405Z,1235.00
2023-02-27T14:59:03.427Z,1209.00
2023-02-27T14:59:52.666Z,1211.00
2023-02-27T15:00:51.716Z,1211.00
2023-02-27T15:01:51.843Z,1214.00
2023-02-27T15:02:51.834Z,1214.00
2023-02-27T15:03:52.058Z,1213.00
2023-02-27T15:04:51.966Z,1203.00
2023-02-27T15:05:51.955Z,1202.00
2023-02-27T15:06:51.929Z,1202.00
2023-02-27T15:07:51.943Z,1209.00
2023-02-27T15:08:51.953Z,1203.00
2023-02-27T15:09:52.025Z,1190.00
2023-02-27T15:10:52.028Z,1192.00
2023-02-27T15:12:02.953Z,1192.00
2023-02-27T15:12:52.965Z,1193.00
2023-02-27T15:13:51.936Z,1193.00
2023-02-27T15:14:51.932Z,1184.00
2023-02-27T15:15:52.812Z,1185.00
2023-02-27T15:16:54.040Z,1180.00
2023-02-27T15:17:51.913Z,1197.00
2023-02-27T15:18:51.899Z,1180.00
2023-02-27T15:19:51.904Z,1200.00
2023-02-27T15:20:51.954Z,1188.00
2023-02-27T15:21:52.672Z,1185.00
2023-02-27T15:22:51.892Z,1185.00
2023-02-27T15:23:51.872Z,1180.00
2023-02-27T15:24:51.860Z,1187.00
2023-02-27T15:25:51.877Z,1183.00
2023-02-27T15:26:51.933Z,1171.00
2023-02-27T15:27:51.838Z,1166.00
2023-02-27T15:28:51.826Z,1164.00
2023-02-27T15:29:51.954Z,1156.00
2023-02-27T15:30:51.877Z,1145.00
2023-02-27T15:31:51.846Z,1142.00
2023-02-27T15:32:53.639Z,1144.00
2023-02-27T15:33:51.798Z,1144.00
2023-02-27T15:34:51.792Z,1146.00
2023-02-27T15:35:51.893Z,1144.00
2023-02-27T15:36:51.769Z,1151.00
2023-02-27T15:37:51.772Z,1138.00
2023-02-27T15:38:51.757Z,1134.00
2023-02-27T15:39:51.748Z,1151.00
2023-02-27T15:40:51.823Z,1142.00
2023-02-27T15:41:51.745Z,1149.00
2023-02-27T15:42:51.741Z,1132.00
2023-02-27T15:43:51.729Z,1150.00
2023-02-27T15:44:51.713Z,1129.00
2023-02-27T15:45:51.709Z,1129.00
2023-02-27T15:46:51.790Z,1126.00
2023-02-27T15:47:51.697Z,1128.00
2023-02-27T15:48:51.774Z,1141.00
2023-02-27T15:49:51.774Z,1131.00
2023-02-27T15:50:51.682Z,1132.00
2023-02-27T15:51:51.649Z,1110.00
2023-02-27T15:52:51.656Z,1105.00
2023-02-27T15:53:51.704Z,1117.00
2023-02-27T15:54:51.636Z,1126.00
2023-02-27T15:55:51.643Z,1133.00
2023-02-27T15:56:51.618Z,1117.00
2023-02-27T15:58:02.320Z,1102.00
2023-02-27T15:58:52.647Z,1103.00
2023-02-27T15:59:51.592Z,1104.00
2023-02-27T16:00:51.613Z,1107.00
2023-02-27T16:01:51.585Z,1104.00
2023-02-27T16:02:51.620Z,1111.00
2023-02-27T16:03:51.585Z,1102.00
2023-02-27T16:04:51.558Z,1082.00
2023-02-27T16:05:51.676Z,1089.00
2023-02-27T16:06:51.555Z,1091.00
2023-02-27T16:07:51.537Z,1101.00
2023-02-27T16:08:51.534Z,1088.00
2023-02-27T16:09:51.570Z,1090.00
2023-02-27T16:10:51.528Z,1088.00
2023-02-27T16:11:51.618Z,1088.00
2023-02-27T16:12:51.525Z,1081.00
2023-02-27T16:13:51.498Z,1079.00
2023-02-27T16:14:51.486Z,1075.00
2023-02-27T16:15:51.525Z,1061.00
2023-02-27T16:16:51.490Z,1058.00
2023-02-27T16:17:51.472Z,1071.00
2023-02-27T16:18:51.472Z,1072.00
2023-02-27T16:19:51.466Z,1064.00
2023-02-27T16:20:51.482Z,1068.00
2023-02-27T16:21:51.486Z,1056.00
2023-02-27T16:22:51.522Z,1051.00
2023-02-27T16:23:51.534Z,1050.00
2023-02-27T16:24:51.568Z,1060.00
2023-02-27T16:25:51.583Z,1049.00
2023-02-27T16:26:51.621Z,1032.00
2023-02-27T16:27:51.631Z,1050.00
2023-02-27T16:28:51.668Z,1037.00
2023-02-27T16:29:51.686Z,1044.00
2023-02-27T16:30:51.726Z,1043.00
2023-02-27T16:31:51.860Z,1040.00
2023-02-27T16:32:51.757Z,1041.00
2023-02-27T16:33:51.803Z,1051.00
2023-02-27T16:34:51.806Z,1041.00
2023-02-27T16:35:51.861Z,1024.00
2023-02-27T16:36:51.858Z,1028.00
2023-02-27T16:37:51.893Z,1035.00
2023-02-27T16:38:51.913Z,1023.00
2023-02-27T16:39:51.952Z,1025.00
2023-02-27T16:40:52.061Z,1027.00
2023-02-27T16:41:51.987Z,1037.00
2023-02-27T16:42:52.010Z,1021.00
2023-02-27T16:43:52.036Z,1028.00
2023-02-27T16:44:52.082Z,1017.00
2023-02-27T16:45:52.153Z,1021.00
2023-02-27T16:46:52.119Z,1028.00
2023-02-27T16:47:52.161Z,1029.00
2023-02-27T16:48:52.183Z,1021.00
2023-02-27T16:49:52.192Z,1012.00
2023-02-27T16:50:52.217Z,1003.00
2023-02-27T16:51:52.271Z,1003.00
2023-02-27T16:52:52.693Z,1015.00
2023-02-27T16:53:52.331Z,995.00
2023-02-27T16:54:52.330Z,995.00
2023-02-27T16:55:52.359Z,994.00
2023-02-27T16:56:53.194Z,1009.00
2023-02-27T16:57:52.413Z,996.00
2023-02-27T16:58:52.428Z,995.00
2023-02-27T16:59:52.451Z,992.00
2023-02-27T17:00:52.528Z,990.00
2023-02-27T17:01:53.191Z,968.00
2023-02-27T17:02:52.548Z,983.00
2023-02-27T17:03:52.560Z,989.00
2023-02-27T17:04:52.671Z,997.00
2023-02-27T17:05:52.679Z,986.00
2023-02-27T17:06:52.643Z,971.00
2023-02-27T17:07:52.656Z,970.00
2023-02-27T17:08:52.813Z,979.00
2023-02-27T17:09:52.739Z,972.00
2023-02-27T17:10:52.739Z,969.00
2023-02-27T17:11:52.752Z,977.00
2023-02-27T17:12:52.778Z,978.00
2023-02-27T17:13:52.806Z,980.00
2023-02-27T17:14:52.827Z,983.00
2023-02-27T17:15:52.858Z,954.00
2023-02-27T17:16:52.962Z,953.00
2023-02-27T17:17:52.916Z,957.00
2023-02-27T17:18:52.936Z,961.00
2023-02-27T17:19:52.991Z,957.00
2023-02-27T17:20:52.976Z,961.00
2023-02-27T17:21:53.002Z,969.00
2023-02-27T17:22:53.029Z,955.00
2023-02-27T17:23:53.062Z,965.00
2023-02-27T19:05:55.955Z,813.00
2023-02-27T19:06:55.993Z,820.00
2023-02-27T19:07:56.021Z,823.00
2023-02-27T19:08:56.059Z,831.00
2023-02-27T19:09:56.101Z,809.00
2023-02-27T19:10:56.121Z,823.00
2023-02-27T19:11:56.150Z,795.00
2023-02-27T19:12:56.191Z,814.00
2023-02-27T19:13:56.228Z,809.00
2023-02-27T19:14:56.245Z,807.00
2023-02-27T19:15:56.321Z,807.00
2023-02-27T19:16:56.320Z,792.00
2023-02-27T19:17:56.362Z,804.00
2023-02-27T19:18:56.433Z,805.00
2023-02-27T19:19:56.433Z,819.00
2023-02-27T19:20:57.438Z,798.00
2023-02-27T19:21:56.500Z,806.00
2023-02-27T19:22:56.540Z,803.00
2023-02-27T19:23:56.580Z,809.00
2023-02-27T19:24:56.598Z,808.00
2023-02-27T19:25:56.651Z,797.00
2023-02-27T19:26:56.680Z,808.00
2023-02-27T19:27:56.769Z,790.00
2023-02-27T19:28:56.785Z,801.00
2023-02-27T19:29:57.263Z,796.00
2023-02-27T19:30:56.870Z,800.00
2023-02-27T19:34:56.949Z,794.00
2023-02-27T19:37:57.055Z,764.00
2023-02-27T19:38:57.097Z,791.00
2023-02-27T19:39:57.112Z,784.00
2023-02-27T19:40:57.152Z,801.00
2023-02-27T19:41:57.191Z,792.00
2023-02-27T19:42:57.241Z,777.00
2023-02-27T19:43:57.263Z,774.00
2023-02-27T19:44:57.283Z,768.00
2023-02-27T19:45:57.340Z,776.00
2023-02-27T19:46:57.368Z,765.00
2023-02-27T19:47:57.393Z,764.00
2023-02-27T19:48:57.440Z,765.00
2023-02-27T19:49:57.472Z,774.00
2023-02-27T19:50:57.541Z,761.00
2023-02-27T19:51:57.542Z,768.00
2023-02-27T19:52:57.593Z,749.00
2023-02-27T19:53:57.630Z,773.00
2023-02-27T19:54:57.658Z,755.00
2023-02-27T19:55:57.780Z,779.00
2023-02-27T19:56:57.746Z,749.00
2023-02-27T19:57:57.783Z,769.00
2023-02-27T19:58:57.843Z,747.00
2023-02-27T19:59:58.759Z,773.00
2023-02-27T20:00:57.943Z,755.00
2023-02-27T20:01:57.951Z,757.00
2023-02-27T20:02:57.988Z,746.00
2023-02-27T20:03:58.052Z,755.00
2023-02-27T20:04:58.111Z,746.00
2023-02-27T20:05:58.104Z,749.00
2023-02-27T20:06:58.267Z,743.00
2023-02-27T20:07:58.209Z,741.00
2023-02-27T20:08:58.240Z,725.00
2023-02-27T20:09:58.281Z,733.00
2023-02-27T20:10:58.319Z,741.00
2023-02-27T20:11:58.358Z,744.00
2023-02-27T20:12:58.398Z,735.00
2023-02-27T20:13:58.452Z,744.00
2023-02-27T20:14:58.505Z,734.00
2023-02-27T20:15:58.534Z,735.00
2023-02-27T20:16:58.601Z,743.00
2023-02-27T20:17:58.618Z,750.00
2023-02-27T20:18:58.671Z,746.00
2023-02-27T20:19:58.706Z,738.00
2023-02-27T20:20:58.734Z,725.00
2023-02-27T20:21:58.784Z,747.00
2023-02-27T20:22:58.828Z,742.00
2023-02-27T20:23:58.881Z,733.00
2023-02-27T20:24:58.918Z,733.00
2023-02-27T20:25:58.981Z,721.00
2023-02-27T20:26:59.324Z,734.00
2023-02-27T20:27:59.058Z,720.00
2023-02-27T20:28:59.128Z,733.00
2023-02-27T20:29:59.150Z,744.00
2023-02-27T20:30:59.209Z,721.00
2023-02-27T20:31:59.360Z,700.00
2023-02-27T20:32:59.315Z,709.00
2023-02-27T20:33:59.356Z,702.00
2023-02-27T20:34:59.393Z,719.00
2023-02-27T20:35:59.499Z,712.00
2023-02-27T20:36:59.573Z,716.00
2023-02-27T20:37:59.531Z,723.00
2023-02-27T20:38:59.584Z,720.00
2023-02-27T20:39:59.628Z,706.00
2023-02-27T20:40:59.677Z,716.00
2023-02-27T20:41:59.713Z,724.00
2023-02-27T20:42:59.758Z,692.00
2023-02-27T20:43:59.821Z,715.00
2023-02-27T20:44:59.873Z,709.00
2023-02-27T20:45:59.961Z,710.00
2023-02-27T20:46:59.953Z,701.00
2023-02-27T20:48:00.004Z,693.00
2023-02-27T20:49:00.042Z,707.00
2023-02-27T20:50:00.088Z,715.00
2023-02-27T20:51:00.129Z,698.00
2023-02-27T20:52:00.168Z,692.00
2023-02-27T20:53:00.223Z,696.00
2023-02-27T20:54:00.269Z,692.00
2023-02-27T20:55:00.330Z,692.00
2023-02-27T20:56:00.375Z,679.00
2023-02-27T20:57:00.417Z,694.00
2023-02-27T20:58:00.458Z,701.00
2023-02-27T20:59:00.505Z,703.00
2023-02-27T21:00:00.579Z,692.00
2023-02-27T21:01:00.642Z,691.00
2023-02-27T21:02:00.653Z,697.00
2023-02-27T21:03:00.734Z,687.00
2023-02-27T21:04:00.785Z,691.00
2023-02-27T21:05:00.931Z,695.00
2023-02-27T21:06:00.838Z,685.00
2023-02-27T21:07:00.880Z,676.00
2023-02-27T21:12:01.124Z,691.00
2023-02-27T22:44:06.817Z,646.00
2023-02-27T22:46:05.993Z,646.00
2023-02-27T22:48:06.154Z,643.00
2023-02-27T22:49:06.132Z,637.00
2023-02-27T22:50:06.229Z,646.00
2023-02-27T22:52:06.268Z,644.00
2023-02-27T22:53:06.320Z,645.00
2023-02-27T22:54:06.382Z,645.00
2023-02-27T22:55:06.468Z,646.00
2023-02-27T22:56:06.454Z,645.00
2023-02-27T22:57:06.507Z,645.00
2023-02-27T22:58:06.556Z,641.00
2023-02-27T22:59:06.614Z,641.00
2023-02-27T23:00:06.679Z,636.00
2023-02-27T23:01:06.720Z,638.00
2023-02-27T23:02:06.894Z,639.00
2023-02-27T23:03:06.825Z,640.00
2023-02-27T23:04:08.003Z,635.00
2023-02-27T23:05:06.937Z,636.00
2023-02-27T23:06:07.051Z,635.00
2023-02-27T23:07:07.043Z,637.00
2023-02-27T23:08:07.168Z,633.00
2023-02-27T23:09:07.158Z,633.00
2023-02-27T23:10:07.211Z,636.00
2023-02-27T23:11:07.260Z,639.00
2023-02-27T23:12:07.320Z,634.00
2023-02-27T23:13:07.373Z,633.00